createdAt,value
2022-08-28T00:00:59.852Z,34.50
2022-08-28T00:03:26.686Z,40.28
2022-08-28T00:05:53.861Z,41.97
2022-08-28T00:08:21.269Z,40.65
2022-08-28T00:10:48.557Z,40.53
2022-08-28T00:13:19.968Z,39.17
2022-08-28T00:15:50.185Z,41.22
2022-08-28T00:18:18.531Z,42.17
2022-08-28T00:20:46.556Z,42.72
2022-08-28T00:23:14.049Z,39.03
2022-08-28T00:25:41.079Z,39.63
2022-08-28T00:28:10.994Z,39.22
2022-08-28T00:30:53.905Z,39.58
2022-08-28T00:33:22.975Z,43.58
2022-08-28T00:35:54.336Z,45.50
2022-08-28T00:38:23.220Z,42.83
2022-08-28T00:40:55.401Z,43.88
2022-08-28T00:43:42.233Z,44.15
2022-08-28T00:46:16.042Z,45.67
2022-08-28T00:48:43.578Z,48.30
2022-08-28T00:51:30.181Z,46.25
2022-08-28T00:53:59.154Z,48.42
2022-08-28T00:56:29.277Z,48.47
2022-08-28T00:58:58.518Z,50.30
2022-08-28T01:01:25.717Z,51.45
2022-08-28T01:03:52.991Z,50.58
2022-08-28T01:06:22.903Z,54.53
2022-08-28T01:08:50.353Z,54.75
2022-08-28T01:11:19.642Z,56.38
2022-08-28T01:13:49.259Z,56.92
2022-08-28T01:18:45.850Z,61.22
2022-08-28T01:22:08.273Z,60.90
2022-08-28T01:24:37.864Z,57.38
2022-08-28T01:27:04.985Z,62.90
2022-08-28T01:29:31.867Z,65.07
2022-08-28T01:31:59.785Z,64.90
2022-08-28T01:34:26.660Z,63.20
2022-08-28T01:36:53.570Z,63.88
2022-08-28T01:39:22.945Z,64.85
2022-08-28T01:41:52.863Z,63.58
2022-08-28T01:44:24.903Z,64.80
2022-08-28T01:46:54.034Z,63.40
2022-08-28T01:49:22.157Z,63.55
2022-08-28T01:51:50.042Z,67.63
2022-08-28T01:54:19.195Z,64.03
2022-08-28T01:56:48.392Z,63.72
2022-08-28T01:59:15.919Z,63.47
2022-08-28T02:01:44.197Z,62.90
2022-08-28T02:04:12.023Z,64.07
2022-08-28T02:06:39.194Z,62.50
2022-08-28T02:09:11.586Z,58.80
2022-08-28T02:11:46.614Z,60.50
2022-08-28T02:14:14.632Z,62.53
2022-08-28T02:16:41.525Z,60.10
2022-08-28T02:19:08.337Z,60.25
2022-08-28T02:21:35.764Z,59.53
2022-08-28T02:24:02.676Z,59.53
2022-08-28T02:26:30.477Z,56.85
2022-08-28T02:28:59.032Z,57.38
2022-08-28T02:31:26.677Z,54.53
2022-08-28T02:33:53.592Z,56.63
2022-08-28T02:36:23.228Z,54.57
2022-08-28T02:38:55.479Z,54.75
2022-08-28T02:41:25.083Z,55.47
2022-08-28T02:43:52.431Z,54.53
2022-08-28T02:46:19.282Z,56.40
2022-08-28T02:48:46.063Z,54.78
2022-08-28T02:51:14.270Z,54.25
2022-08-28T02:53:42.475Z,54.15
2022-08-28T02:56:10.082Z,53.20
2022-08-28T02:58:36.994Z,52.78
2022-08-28T03:01:07.214Z,53.97
2022-08-28T03:03:35.000Z,50.75
2022-08-28T03:08:32.310Z,51.15
2022-08-28T03:10:59.813Z,52.22
2022-08-28T03:13:27.592Z,53.78
2022-08-28T03:15:55.803Z,52.50
2022-08-28T03:18:24.532Z,55.35
2022-08-28T03:20:53.591Z,51.78
2022-08-28T03:23:30.245Z,50.28
2022-08-28T03:25:59.359Z,50.97
2022-08-28T03:28:28.649Z,50.08
2022-08-28T03:30:55.594Z,50.55
2022-08-28T03:33:22.497Z,51.83
2022-08-28T03:35:49.585Z,48.30
2022-08-28T03:38:18.022Z,48.22
2022-08-28T03:40:46.732Z,48.70
2022-08-28T03:43:16.537Z,51.33
2022-08-28T03:45:53.257Z,48.03
2022-08-28T03:48:20.655Z,48.40
2022-08-28T03:50:47.835Z,47.13
2022-08-28T03:53:16.179Z,46.70
2022-08-28T03:55:43.162Z,47.83
2022-08-28T03:58:10.324Z,47.17
2022-08-28T04:00:46.954Z,44.25
2022-08-28T04:03:16.764Z,46.65
2022-08-28T04:05:45.660Z,44.50
2022-08-28T04:08:16.084Z,43.27
2022-08-28T04:10:44.727Z,46.67
2022-08-28T04:13:12.824Z,47.65
2022-08-28T04:15:41.484Z,47.88
2022-08-28T04:18:09.464Z,46.53
2022-08-28T04:20:39.959Z,45.88
2022-08-28T04:23:09.950Z,42.75
2022-08-28T04:25:40.280Z,42.40
2022-08-28T04:28:07.080Z,45.42
2022-08-28T04:30:33.909Z,45.30
2022-08-28T04:33:00.765Z,43.72
2022-08-28T04:35:27.567Z,43.10
2022-08-28T04:37:57.540Z,45.40
2022-08-28T04:40:25.795Z,44.05
2022-08-28T04:42:52.775Z,44.10
2022-08-28T04:45:19.603Z,45.10
2022-08-28T04:47:46.385Z,41.67
2022-08-28T04:50:13.275Z,45.50
2022-08-28T04:52:40.132Z,41.95
2022-08-28T04:55:07.554Z,40.63
2022-08-28T04:57:36.412Z,42.40
2022-08-28T05:00:06.697Z,42.65
2022-08-28T05:02:33.784Z,42.10
2022-08-28T05:05:00.704Z,41.25
2022-08-28T05:07:27.818Z,42.55
2022-08-28T05:09:54.766Z,44.25
2022-08-28T05:12:22.256Z,39.92
2022-08-28T05:14:49.784Z,40.47
2022-08-28T05:17:16.715Z,42.72
2022-08-28T05:19:43.973Z,41.15
2022-08-28T05:22:11.442Z,41.97
2022-08-28T05:24:40.098Z,41.40
2022-08-28T05:27:07.775Z,40.97
2022-08-28T05:29:34.732Z,42.10
2022-08-28T05:32:01.879Z,42.05
2022-08-28T05:34:28.769Z,42.22
2022-08-28T05:36:55.817Z,42.08
2022-08-28T05:39:22.850Z,42.08
2022-08-28T05:41:49.824Z,43.65
2022-08-28T05:44:17.632Z,44.00
2022-08-28T05:46:47.772Z,40.95
2022-08-28T05:49:16.047Z,41.70
2022-08-28T05:51:42.979Z,43.83
2022-08-28T05:54:11.061Z,42.22
2022-08-28T05:56:40.721Z,41.78
2022-08-28T05:59:08.636Z,41.95
2022-08-28T06:01:40.519Z,43.50
2022-08-28T06:04:14.555Z,42.38
2022-08-28T06:06:42.657Z,43.13
2022-08-28T06:09:29.728Z,44.13
2022-08-28T06:12:02.206Z,42.70
2022-08-28T06:14:30.021Z,43.58
2022-08-28T06:16:57.548Z,43.67
2022-08-28T06:19:26.691Z,45.90
2022-08-28T06:21:59.381Z,44.22
2022-08-28T06:24:28.361Z,44.40
2022-08-28T06:26:58.172Z,44.47
2022-08-28T06:29:27.493Z,43.75
2022-08-28T06:31:56.785Z,44.87
2022-08-28T06:36:53.846Z,43.05
2022-08-28T06:39:22.164Z,44.10
2022-08-28T06:41:49.590Z,44.60
2022-08-28T06:44:22.159Z,41.88
2022-08-28T06:46:52.599Z,44.47
2022-08-28T06:49:19.825Z,42.67
2022-08-28T06:51:46.667Z,44.30
2022-08-28T06:54:19.804Z,45.15
2022-08-28T06:56:50.027Z,44.28
2022-08-28T06:59:16.984Z,42.42
2022-08-28T07:01:43.794Z,42.20
2022-08-28T07:04:12.363Z,42.38
2022-08-28T07:06:43.278Z,42.87
2022-08-28T07:09:13.694Z,41.58
2022-08-28T07:11:43.677Z,40.97
2022-08-28T07:14:10.695Z,43.97
2022-08-28T07:16:39.346Z,41.25
2022-08-28T07:19:08.016Z,40.55
2022-08-28T07:21:39.348Z,42.65
2022-08-28T07:24:08.536Z,42.55
2022-08-28T07:29:10.503Z,41.80
2022-08-28T07:31:41.410Z,40.80
2022-08-28T07:34:10.466Z,41.95
2022-08-28T07:39:05.743Z,38.88
2022-08-28T07:41:35.497Z,38.63
2022-08-28T07:44:21.166Z,39.83
2022-08-28T07:46:47.963Z,40.80
2022-08-28T07:49:17.308Z,40.45
2022-08-28T07:51:46.684Z,39.85
2022-08-28T07:54:17.658Z,39.92
2022-08-28T07:56:46.122Z,39.22
2022-08-28T07:59:16.685Z,40.80
2022-08-28T08:01:46.656Z,40.80
2022-08-28T08:04:16.053Z,39.15
2022-08-28T08:09:13.165Z,38.60
2022-08-28T08:11:40.312Z,37.13
2022-08-28T08:14:07.552Z,36.03
2022-08-28T08:16:38.991Z,37.38
2022-08-28T08:19:09.861Z,35.53
2022-08-28T08:21:37.789Z,35.97
2022-08-28T08:24:05.208Z,36.33
2022-08-28T08:26:33.202Z,35.45
2022-08-28T08:29:00.988Z,42.55
2022-08-28T08:31:32.440Z,36.75
2022-08-28T08:34:02.157Z,35.28
2022-08-28T08:36:31.026Z,38.35
2022-08-28T08:39:00.345Z,38.50
2022-08-28T08:41:47.982Z,36.22
2022-08-28T08:44:33.523Z,35.30
2022-08-28T08:47:03.975Z,35.35
2022-08-28T08:49:36.958Z,34.92
2022-08-28T08:52:29.130Z,38.17
2022-08-28T08:55:06.305Z,34.55
2022-08-28T08:57:36.881Z,33.95
2022-08-28T09:00:13.664Z,32.45
2022-08-28T09:02:55.022Z,34.95
2022-08-28T09:05:28.403Z,33.72
2022-08-28T09:08:03.141Z,33.30
2022-08-28T09:10:41.331Z,31.30
2022-08-28T09:13:27.548Z,29.13
2022-08-28T09:15:54.514Z,28.40
2022-08-28T09:18:28.558Z,22.77
2022-08-28T09:20:58.677Z,23.85
2022-08-28T09:23:29.766Z,23.90
2022-08-28T09:26:12.464Z,24.25
2022-08-28T09:28:41.924Z,22.80
2022-08-28T09:31:28.853Z,22.10
2022-08-28T09:33:55.712Z,20.63
2022-08-28T09:36:29.978Z,22.98
2022-08-28T09:39:10.263Z,22.30
2022-08-28T09:41:59.144Z,22.75
2022-08-28T09:44:26.009Z,21.77
2022-08-28T09:46:53.076Z,22.30
2022-08-28T09:49:29.800Z,22.30
2022-08-28T09:51:59.731Z,20.23
2022-08-28T09:54:37.037Z,23.55
2022-08-28T09:57:04.172Z,21.70
2022-08-28T09:59:36.416Z,16.92
2022-08-28T10:02:29.740Z,15.90
2022-08-28T10:05:24.732Z,17.90
2022-08-28T10:08:03.065Z,16.27
2022-08-28T10:10:48.146Z,17.23
2022-08-28T10:13:24.031Z,17.30
2022-08-28T10:16:06.270Z,13.23
2022-08-28T10:18:51.740Z,12.90
2022-08-28T10:21:22.200Z,13.55
2022-08-28T10:23:51.957Z,13.20
2022-08-28T10:26:40.148Z,13.60
2022-08-28T10:29:12.933Z,14.15
2022-08-28T10:31:59.622Z,12.45
2022-08-28T10:34:50.523Z,12.73
2022-08-28T10:37:32.475Z,12.02
2022-08-28T10:40:04.582Z,11.93
2022-08-28T10:42:39.980Z,14.55
2022-08-28T10:45:21.004Z,12.43
2022-08-28T10:48:01.772Z,11.30
2022-08-28T10:50:37.592Z,11.05
2022-08-28T10:53:10.581Z,10.77
2022-08-28T10:55:52.107Z,10.13
2022-08-28T10:58:24.623Z,10.95
2022-08-28T11:01:01.579Z,10.93
2022-08-28T11:03:35.427Z,11.48
2022-08-28T11:06:16.219Z,12.65
2022-08-28T11:08:53.059Z,10.85
2022-08-28T11:11:43.856Z,11.10
2022-08-28T11:14:23.320Z,13.23
2022-08-28T11:16:51.434Z,12.68
2022-08-28T11:19:38.661Z,11.93
2022-08-28T11:22:22.428Z,11.20
2022-08-28T11:25:26.543Z,11.95
2022-08-28T11:28:24.419Z,11.70
2022-08-28T11:31:06.432Z,11.68
2022-08-28T11:33:45.327Z,11.32
2022-08-28T11:36:32.711Z,11.95
2022-08-28T11:39:05.055Z,11.95
2022-08-28T11:41:38.727Z,11.70
2022-08-28T11:44:14.033Z,11.35
2022-08-28T11:46:49.511Z,11.57
2022-08-28T11:49:34.484Z,10.43
2022-08-28T11:52:33.763Z,10.02
2022-08-28T11:55:22.885Z,10.85
2022-08-28T12:00:45.376Z,10.70
2022-08-28T12:03:24.950Z,10.33
2022-08-28T12:05:58.659Z,11.05
2022-08-28T12:08:49.033Z,12.38
2022-08-28T12:11:40.913Z,11.05
2022-08-28T12:14:09.651Z,11.13
2022-08-28T12:16:59.261Z,11.63
2022-08-28T12:19:52.095Z,11.35
2022-08-28T12:22:53.115Z,13.40
2022-08-28T12:25:42.291Z,13.65
2022-08-28T12:28:39.580Z,12.40
2022-08-28T12:31:06.456Z,13.75
2022-08-28T12:33:47.870Z,13.02
2022-08-28T12:36:19.251Z,12.25
2022-08-28T12:38:52.079Z,11.75
2022-08-28T12:41:19.463Z,13.05
2022-08-28T12:43:51.296Z,12.18
2022-08-28T12:46:28.741Z,12.32
2022-08-28T12:48:55.581Z,11.02
2022-08-28T12:51:25.375Z,12.30
2022-08-28T12:53:55.668Z,11.25
2022-08-28T12:56:24.590Z,11.70
2022-08-28T12:58:52.286Z,11.90
2022-08-28T13:01:41.719Z,11.65
2022-08-28T13:04:31.265Z,11.65
2022-08-28T13:07:06.559Z,11.90
2022-08-28T13:09:34.856Z,11.43
2022-08-28T13:12:01.875Z,13.30
2022-08-28T13:14:39.030Z,11.02
2022-08-28T13:17:06.313Z,11.15
2022-08-28T13:19:34.562Z,10.40
2022-08-28T13:22:25.914Z,11.13
2022-08-28T13:24:59.666Z,10.68
2022-08-28T13:27:27.147Z,11.45
2022-08-28T13:30:20.160Z,11.05
2022-08-28T13:32:56.371Z,11.15
2022-08-28T13:35:23.380Z,11.73
2022-08-28T13:37:52.635Z,11.02
2022-08-28T13:43:18.395Z,10.38
2022-08-28T13:45:48.814Z,11.60
2022-08-28T13:48:19.766Z,10.90
2022-08-28T13:50:50.095Z,9.70
2022-08-28T13:53:19.126Z,53.58
2022-08-28T13:55:48.474Z,12.05
2022-08-28T13:58:16.203Z,10.18
2022-08-28T14:00:48.376Z,10.20
2022-08-28T14:03:35.200Z,10.60
2022-08-28T14:06:11.546Z,9.85
2022-08-28T14:08:43.454Z,12.32
2022-08-28T14:11:13.037Z,11.32
2022-08-28T14:13:47.341Z,11.15
2022-08-28T14:16:23.362Z,12.38
2022-08-28T14:18:53.097Z,11.70
2022-08-28T14:21:20.860Z,11.77
2022-08-28T14:23:47.662Z,11.60
2022-08-28T14:26:14.591Z,11.63
2022-08-28T14:28:42.516Z,10.95
2022-08-28T14:31:14.258Z,12.00
2022-08-28T14:33:42.477Z,11.00
2022-08-28T14:36:23.731Z,9.93
2022-08-28T14:38:54.241Z,11.23
2022-08-28T14:41:23.291Z,9.68
2022-08-28T14:43:50.369Z,10.30
2022-08-28T14:46:23.424Z,10.02
2022-08-28T14:48:51.072Z,9.52
2022-08-28T14:51:18.487Z,10.60
2022-08-28T14:53:45.544Z,10.57
2022-08-28T14:56:12.367Z,11.18
2022-08-28T14:58:39.461Z,11.07
2022-08-28T15:01:06.743Z,12.00
2022-08-28T15:03:34.004Z,12.00
2022-08-28T15:06:09.685Z,11.07
2022-08-28T15:08:37.310Z,12.88
2022-08-28T15:11:08.767Z,20.33
2022-08-28T15:13:36.048Z,14.57
2022-08-28T15:16:05.748Z,14.88
2022-08-28T15:18:43.474Z,16.55
2022-08-28T15:21:24.840Z,18.25
2022-08-28T15:26:22.400Z,18.75
2022-08-28T15:28:50.945Z,20.02
2022-08-28T15:31:18.527Z,19.67
2022-08-28T15:33:45.622Z,19.65
2022-08-28T15:36:12.951Z,21.83
2022-08-28T15:38:58.238Z,21.15
2022-08-28T15:41:25.101Z,21.85
2022-08-28T15:43:57.499Z,20.85
2022-08-28T15:46:24.235Z,23.20
2022-08-28T15:48:54.446Z,25.05
2022-08-28T15:51:25.867Z,24.73
2022-08-28T15:53:53.163Z,22.35
2022-08-28T15:56:20.378Z,25.02
2022-08-28T15:58:48.269Z,25.92
2022-08-28T16:01:15.185Z,25.75
2022-08-28T16:03:42.104Z,26.20
2022-08-28T16:06:16.129Z,28.75
2022-08-28T16:08:44.335Z,26.63
2022-08-28T16:11:16.116Z,28.42
2022-08-28T16:13:43.023Z,27.60
2022-08-28T16:16:10.254Z,29.50
2022-08-28T16:18:37.624Z,28.35
2022-08-28T16:21:05.300Z,30.17
2022-08-28T16:23:39.820Z,29.85
2022-08-28T16:26:07.939Z,28.92
2022-08-28T16:28:36.616Z,29.25
2022-08-28T16:31:07.359Z,29.77
2022-08-28T16:33:37.378Z,29.35
2022-08-28T16:36:14.215Z,29.90
2022-08-28T16:38:43.330Z,30.75
2022-08-28T16:41:12.693Z,29.30
2022-08-28T16:43:39.904Z,34.05
2022-08-28T16:46:22.039Z,31.75
2022-08-28T16:48:49.759Z,32.42
2022-08-28T16:51:17.181Z,31.70
2022-08-28T16:53:44.153Z,35.45
2022-08-28T16:56:12.492Z,34.00
2022-08-28T16:58:41.179Z,34.88
2022-08-28T17:01:10.670Z,34.28
2022-08-28T17:03:38.967Z,34.75
2022-08-28T17:06:13.640Z,35.33
2022-08-28T17:08:40.762Z,34.58
2022-08-28T17:11:07.689Z,37.17
2022-08-28T17:13:35.157Z,36.60
2022-08-28T17:16:03.070Z,39.53
2022-08-28T17:18:30.452Z,38.75
2022-08-28T17:21:15.805Z,37.88
2022-08-28T17:23:42.798Z,40.17
2022-08-28T17:26:10.078Z,38.00
2022-08-28T17:28:36.849Z,40.60
2022-08-28T17:31:03.922Z,40.88
2022-08-28T17:33:31.023Z,40.08
2022-08-28T17:35:59.875Z,39.65
2022-08-28T17:38:26.843Z,45.30
2022-08-28T17:40:53.746Z,43.30
2022-08-28T17:43:21.386Z,42.25
2022-08-28T17:45:48.643Z,43.08
2022-08-28T17:48:17.131Z,44.08
2022-08-28T17:50:46.386Z,39.03
2022-08-28T17:55:39.963Z,36.90
2022-08-28T17:58:06.865Z,40.47
2022-08-28T18:00:35.023Z,41.20
2022-08-28T18:03:02.771Z,41.80
2022-08-28T18:05:29.912Z,43.63
2022-08-28T18:07:56.864Z,47.33
2022-08-28T18:10:23.935Z,44.95
2022-08-28T18:12:50.960Z,48.40
2022-08-28T18:15:18.011Z,49.67
2022-08-28T18:17:50.329Z,49.15
2022-08-28T18:20:18.315Z,47.38
2022-08-28T18:22:48.291Z,49.88
2022-08-28T18:25:34.431Z,49.05
2022-08-28T18:28:03.412Z,49.45
2022-08-28T18:30:30.291Z,48.47
2022-08-28T18:32:58.468Z,48.55
2022-08-28T18:35:31.540Z,48.65
2022-08-28T18:38:01.584Z,46.72
2022-08-28T18:40:29.286Z,45.95
2022-08-28T18:42:56.409Z,44.10
2022-08-28T18:45:23.245Z,45.42
2022-08-28T18:47:50.289Z,42.28
2022-08-28T18:50:17.569Z,44.75
2022-08-28T18:52:44.588Z,40.35
2022-08-28T18:55:11.378Z,43.13
2022-08-28T18:57:38.344Z,37.05
2022-08-28T19:00:06.276Z,37.75
2022-08-28T19:02:37.072Z,38.58
2022-08-28T19:05:06.979Z,38.50
2022-08-28T19:07:33.875Z,35.00
2022-08-28T19:10:00.803Z,35.50
2022-08-28T19:12:27.622Z,35.63
2022-08-28T19:14:56.573Z,33.50
2022-08-28T19:17:24.993Z,33.95
2022-08-28T19:19:52.034Z,35.67
2022-08-28T19:22:18.847Z,37.88
2022-08-28T19:24:45.647Z,34.53
2022-08-28T19:27:12.521Z,33.60
2022-08-28T19:29:39.395Z,33.10
2022-08-28T19:32:07.511Z,32.75
2022-08-28T19:34:35.141Z,35.85
2022-08-28T19:37:02.360Z,30.83
2022-08-28T19:39:29.951Z,32.15
2022-08-28T19:41:56.767Z,31.88
2022-08-28T19:44:23.791Z,30.23
2022-08-28T19:46:50.683Z,30.65
2022-08-28T19:49:18.267Z,31.77
2022-08-28T19:51:45.327Z,32.20
2022-08-28T19:54:14.306Z,30.55
2022-08-28T19:56:41.522Z,31.55
2022-08-28T19:59:08.979Z,32.70
2022-08-28T20:01:39.319Z,32.13
2022-08-28T20:04:08.328Z,32.03
2022-08-28T20:06:36.886Z,29.95
2022-08-28T20:09:04.412Z,31.10
2022-08-28T20:11:31.724Z,30.95
2022-08-28T20:14:04.566Z,32.08
2022-08-28T20:16:35.007Z,29.92
2022-08-28T20:19:03.082Z,28.70
2022-08-28T20:21:37.487Z,28.35
2022-08-28T20:24:08.203Z,27.38
2022-08-28T20:26:35.505Z,29.33
2022-08-28T20:29:03.376Z,28.73
2022-08-28T20:31:30.214Z,27.92
2022-08-28T20:33:57.030Z,29.80
2022-08-28T20:36:24.096Z,28.20
2022-08-28T20:38:51.004Z,28.95
2022-08-28T20:41:20.839Z,29.50
2022-08-28T20:43:49.797Z,28.40
2022-08-28T20:46:17.425Z,29.58
2022-08-28T20:48:44.725Z,29.20
2022-08-28T20:51:12.146Z,28.08
2022-08-28T20:53:39.534Z,27.02
2022-08-28T20:56:09.570Z,26.05
2022-08-28T20:58:37.367Z,28.60
2022-08-28T21:01:05.820Z,27.48
2022-08-28T21:03:33.208Z,25.93
2022-08-28T21:06:00.191Z,26.88
2022-08-28T21:08:27.075Z,26.35
2022-08-28T21:10:54.359Z,23.95
2022-08-28T21:13:21.823Z,25.90
2022-08-28T21:15:48.691Z,25.30
2022-08-28T21:18:16.192Z,25.77
2022-08-28T21:20:43.303Z,25.65
2022-08-28T21:23:10.613Z,22.73
2022-08-28T21:25:39.700Z,23.33
2022-08-28T21:28:06.778Z,22.98
2022-08-28T21:30:34.384Z,23.55
2022-08-28T21:33:01.307Z,23.52
2022-08-28T21:35:28.350Z,20.45
2022-08-28T21:37:55.190Z,19.08
2022-08-28T21:40:22.112Z,21.05
2022-08-28T21:42:49.050Z,19.63
2022-08-28T21:45:15.850Z,18.52
2022-08-28T21:47:43.418Z,19.95
2022-08-28T21:50:10.955Z,22.08
2022-08-28T21:52:38.148Z,18.67
2022-08-28T21:55:09.183Z,19.35
2022-08-28T21:57:37.718Z,20.08
2022-08-28T22:00:16.609Z,20.77
2022-08-28T22:02:44.177Z,20.92
2022-08-28T22:05:11.666Z,20.77
2022-08-28T22:07:38.744Z,18.67
2022-08-28T22:10:06.102Z,23.02
2022-08-28T22:12:35.161Z,21.33
2022-08-28T22:15:02.287Z,21.25
2022-08-28T22:17:30.664Z,22.20
2022-08-28T22:19:57.495Z,22.60
2022-08-28T22:22:42.909Z,23.02
2022-08-28T22:25:09.807Z,23.42
2022-08-28T22:27:38.079Z,23.58
2022-08-28T22:30:05.561Z,22.92
2022-08-28T22:32:32.437Z,22.85
2022-08-28T22:34:59.277Z,22.70
2022-08-28T22:37:26.254Z,23.20
2022-08-28T22:39:53.266Z,21.55
2022-08-28T22:42:20.312Z,25.33
2022-08-28T22:44:47.113Z,23.90
2022-08-28T22:47:13.911Z,27.45
2022-08-28T22:49:40.815Z,24.50
2022-08-28T22:52:10.373Z,25.15
2022-08-28T22:57:05.875Z,25.60
2022-08-28T22:59:34.420Z,24.37
2022-08-28T23:02:01.510Z,27.17
2022-08-28T23:04:28.427Z,27.42
2022-08-28T23:06:55.434Z,27.73
2022-08-28T23:09:22.469Z,28.40
2022-08-28T23:11:49.843Z,27.27
2022-08-28T23:14:17.003Z,27.63
2022-08-28T23:16:44.308Z,27.65
2022-08-28T23:19:13.316Z,27.75
2022-08-28T23:21:43.686Z,28.80
2022-08-28T23:24:13.014Z,30.10
2022-08-28T23:26:39.887Z,30.05
2022-08-28T23:29:06.847Z,29.13
2022-08-28T23:31:33.740Z,29.02
2022-08-28T23:34:00.675Z,30.13
2022-08-28T23:36:27.772Z,29.42
2022-08-28T23:38:54.728Z,29.23
2022-08-28T23:41:21.685Z,30.10
2022-08-28T23:43:49.292Z,29.17
2022-08-28T23:46:20.164Z,36.92
2022-08-28T23:48:49.778Z,33.50
2022-08-28T23:51:17.546Z,32.65
2022-08-28T23:53:45.166Z,29.85
2022-08-28T23:56:12.838Z,30.83
2022-08-28T23:58:40.374Z,30.17
